Time;durP1;ratioP1;P1;durP2;ratioP2;P2;SDS_P1;SDS_P2;PMS_P1;PMS_P2;Temp;Humidity;BMP_temperature;BMP_pressure;BME280_temperature;BME280_humidity;BME280_pressure;Samples;Min_cycle;Max_cycle;Signal;HPM_P1;HPM_P2
2023/04/28 00:01:58;;;;;;;2.27;1.60;;;18.00;59.00;;;;;;5091312;28;20204;-47
2023/04/28 00:04:28;;;;;;;1.77;1.40;;;18.00;59.10;;;;;;5084410;28;20207;-47
2023/04/28 00:07:00;;;;;;;2.63;1.60;;;18.00;58.90;;;;;;5090877;28;20318;-47
2023/04/28 00:09:29;;;;;;;3.20;1.73;;;18.00;58.90;;;;;;5093481;28;20236;-47
2023/04/28 00:12:02;;;;;;;2.90;1.90;;;18.00;59.10;;;;;;5093095;28;20680;-47
2023/04/28 00:14:33;;;;;;;1.70;1.43;;;18.00;59.00;;;;;;5085638;28;20203;-47
2023/04/28 00:17:03;;;;;;;2.47;1.83;;;18.00;59.00;;;;;;5091082;28;20189;-47
2023/04/28 00:19:30;;;;;;;1.50;1.33;;;17.90;59.10;;;;;;5088598;28;20530;-47
2023/04/28 00:21:59;;;;;;;2.50;2.10;;;17.90;59.10;;;;;;5072526;28;20585;-47
2023/04/28 00:24:32;;;;;;;2.23;1.63;;;17.90;59.10;;;;;;5090270;28;20211;-47
2023/04/28 00:27:03;;;;;;;2.87;1.90;;;17.90;59.10;;;;;;5094019;28;20220;-47
2023/04/28 00:29:32;;;;;;;3.73;1.80;;;17.90;59.10;;;;;;5096756;28;20630;-48
2023/04/28 00:32:06;;;;;;;2.40;1.77;;;17.90;59.30;;;;;;5073748;28;20217;-47
2023/04/28 00:34:36;;;;;;;2.17;1.83;;;17.90;59.30;;;;;;5089596;28;20224;-47
2023/04/28 00:37:06;;;;;;;2.13;1.87;;;17.90;59.20;;;;;;5088447;28;20193;-47
2023/04/28 00:39:35;;;;;;;2.13;1.60;;;17.90;59.30;;;;;;5091141;28;20757;-47
2023/04/28 00:42:06;;;;;;;2.20;1.73;;;17.90;59.20;;;;;;5105734;28;20309;-47
2023/04/28 00:44:49;;;;;;;2.90;2.30;;;17.90;59.30;;;;;;5082145;28;20292;-47
2023/04/28 00:47:21;;;;;;;1.60;1.50;;;17.90;59.20;;;;;;5086943;28;20514;-47
2023/04/28 00:49:52;;;;;;;2.10;1.70;;;17.90;59.30;;;;;;5102819;28;20223;-47
2023/04/28 00:52:21;;;;;;;1.83;1.70;;;17.90;59.40;;;;;;5060562;28;20662;-47
2023/04/28 00:54:51;;;;;;;2.20;2.00;;;17.90;59.30;;;;;;5085719;28;20269;-47
2023/04/28 00:57:22;;;;;;;2.40;1.83;;;17.90;59.40;;;;;;5105873;28;20665;-47
2023/04/28 00:59:52;;;;;;;1.80;1.70;;;17.90;59.40;;;;;;5098522;28;20239;-47
2023/04/28 01:02:20;;;;;;;2.60;1.93;;;17.90;59.30;;;;;;5080251;28;20234;-47
2023/04/28 01:04:51;;;;;;;2.13;1.93;;;17.90;59.40;;;;;;5105923;28;20212;-47
2023/04/28 01:07:22;;;;;;;1.93;1.73;;;17.90;59.40;;;;;;5080690;28;20215;-47
2023/04/28 01:09:50;;;;;;;1.67;1.57;;;17.90;59.50;;;;;;5091238;28;20281;-47
2023/04/28 01:12:20;;;;;;;1.60;1.50;;;17.90;59.50;;;;;;5102214;28;20559;-47
2023/04/28 01:14:50;;;;;;;2.13;1.93;;;17.90;59.60;;;;;;5089416;28;20188;-47
2023/04/28 01:17:21;;;;;;;2.53;2.33;;;17.90;59.60;;;;;;5094619;28;20209;-47
2023/04/28 01:19:53;;;;;;;2.07;1.87;;;17.80;59.50;;;;;;5071605;28;20201;-47
2023/04/28 01:22:25;;;;;;;3.30;1.80;;;17.90;59.50;;;;;;5087502;28;20216;-47
2023/04/28 01:24:59;;;;;;;2.00;1.80;;;17.80;59.40;;;;;;5075336;28;20630;-48
2023/04/28 01:27:27;;;;;;;1.63;1.50;;;17.80;59.50;;;;;;5086377;28;20189;-47
2023/04/28 01:29:57;;;;;;;1.90;1.80;;;17.80;59.40;;;;;;5103342;28;20506;-47
2023/04/28 01:32:25;;;;;;;1.97;1.80;;;17.80;59.50;;;;;;5094042;28;20177;-47
2023/04/28 01:34:55;;;;;;;2.33;1.90;;;17.80;59.60;;;;;;5096302;28;20551;-47
2023/04/28 01:37:25;;;;;;;2.33;1.90;;;17.80;59.50;;;;;;5096300;28;20197;-48
2023/04/28 01:39:59;;;;;;;1.90;1.80;;;17.80;59.40;;;;;;5103883;28;20200;-47
2023/04/28 01:42:27;;;;;;;2.53;2.20;;;17.80;59.50;;;;;;5091537;28;20220;-47
2023/04/28 01:44:59;;;;;;;2.33;1.90;;;17.80;59.50;;;;;;5102973;28;20184;-47
2023/04/28 01:47:27;;;;;;;2.83;1.60;;;17.80;59.50;;;;;;5091094;28;20254;-47
2023/04/28 01:49:57;;;;;;;3.13;2.07;;;17.80;59.60;;;;;;5103901;28;20195;-46
2023/04/28 01:52:28;;;;;;;4.00;2.20;;;17.80;59.50;;;;;;5100337;28;20189;-47
2023/04/28 01:55:01;;;;;;;2.30;2.10;;;17.80;59.50;;;;;;5101358;28;20192;-47
2023/04/28 01:57:34;;;;;;;1.90;1.70;;;17.80;59.50;;;;;;5092320;28;20718;-47
2023/04/28 02:00:08;;;;;;;2.27;2.00;;;17.80;59.50;;;;;;5100438;28;20189;-47
2023/04/28 02:02:39;;;;;;;2.03;1.80;;;17.80;59.60;;;;;;5097173;28;20188;-47
2023/04/28 02:05:10;;;;;;;2.60;2.00;;;17.80;59.60;;;;;;5097973;28;20197;-47
2023/04/28 02:07:39;;;;;;;2.93;2.20;;;17.80;59.60;;;;;;5099720;28;20579;-47
2023/04/28 02:10:10;;;;;;;2.10;1.90;;;17.80;59.60;;;;;;5071673;28;20201;-47
2023/04/28 02:12:41;;;;;;;3.70;2.10;;;17.80;59.60;;;;;;5090052;28;20227;-47
2023/04/28 02:15:14;;;;;;;2.27;2.03;;;17.80;59.50;;;;;;5086729;28;20189;-47
2023/04/28 02:17:43;;;;;;;2.10;1.80;;;17.80;59.50;;;;;;5089180;28;20193;-47
2023/04/28 02:20:19;;;;;;;2.77;2.17;;;17.70;59.50;;;;;;5071806;28;20197;-47
2023/04/28 02:22:48;;;;;;;2.70;2.50;;;17.80;59.50;;;;;;5088162;28;20212;-47
2023/04/28 02:25:16;;;;;;;2.13;1.80;;;17.80;59.70;;;;;;5076127;28;20204;-47
2023/04/28 02:27:45;;;;;;;2.27;2.07;;;17.80;59.50;;;;;;5114423;27;20189;-47
2023/04/28 02:30:16;;;;;;;2.20;2.00;;;17.80;59.50;;;;;;5097400;28;20189;-47
2023/04/28 02:32:46;;;;;;;2.67;1.90;;;17.80;59.50;;;;;;5096567;28;20201;-47
2023/04/28 02:35:15;;;;;;;2.40;2.20;;;17.80;59.50;;;;;;5092682;28;20342;-46
2023/04/28 02:37:46;;;;;;;2.30;2.10;;;17.70;59.50;;;;;;5078085;28;20189;-47
2023/04/28 02:40:18;;;;;;;3.17;2.33;;;17.70;59.50;;;;;;5095966;28;20233;-47
2023/04/28 02:42:47;;;;;;;2.17;1.93;;;17.70;59.50;;;;;;5087633;28;20524;-47
2023/04/28 02:45:33;;;;;;;2.00;1.80;;;17.70;59.40;;;;;;5070690;27;20286;-47
2023/04/28 02:48:03;;;;;;;2.30;2.10;;;17.70;59.40;;;;;;5085530;28;20213;-47
2023/04/28 02:50:36;;;;;;;2.10;1.90;;;17.70;59.40;;;;;;5093298;28;20196;-47
2023/04/28 02:53:08;;;;;;;2.30;2.10;;;17.70;59.50;;;;;;5091100;28;20216;-47
2023/04/28 02:55:39;;;;;;;2.50;2.30;;;17.70;59.40;;;;;;5090382;28;20501;-47
2023/04/28 02:58:09;;;;;;;2.20;2.00;;;17.70;59.40;;;;;;5085885;28;20725;-47
2023/04/28 03:00:41;;;;;;;2.90;2.10;;;17.70;59.40;;;;;;5074703;28;20201;-47
2023/04/28 03:03:18;;;;;;;2.20;2.00;;;17.70;59.50;;;;;;5056250;28;20208;-47
2023/04/28 03:05:50;;;;;;;2.30;2.10;;;17.70;59.30;;;;;;5090975;28;20219;-47
2023/04/28 03:08:22;;;;;;;3.30;2.30;;;17.70;59.40;;;;;;5096182;28;20648;-47
2023/04/28 03:10:53;;;;;;;2.47;2.03;;;17.70;59.40;;;;;;5103674;28;20643;-47
2023/04/28 03:13:23;;;;;;;2.53;1.90;;;17.70;59.40;;;;;;5088830;28;20662;-47
2023/04/28 03:15:51;;;;;;;2.10;1.90;;;17.70;59.40;;;;;;5089821;28;20619;-47
2023/04/28 03:18:22;;;;;;;2.20;2.00;;;17.70;59.30;;;;;;5099426;28;20604;-47
2023/04/28 03:20:53;;;;;;;2.23;2.03;;;17.70;59.30;;;;;;5075225;28;20212;-47
2023/04/28 03:23:23;;;;;;;2.70;2.20;;;17.70;59.40;;;;;;5087170;28;20246;-47
2023/04/28 03:25:53;;;;;;;2.30;2.10;;;17.70;59.40;;;;;;5100513;28;20623;-48
2023/04/28 03:28:26;;;;;;;1.70;1.60;;;17.70;59.40;;;;;;5100521;28;20227;-47
2023/04/28 03:30:53;;;;;;;2.20;2.00;;;17.70;59.40;;;;;;5087694;28;20317;-47
2023/04/28 03:33:23;;;;;;;2.57;2.10;;;17.70;59.30;;;;;;5087650;28;20223;-47
2023/04/28 03:35:53;;;;;;;3.87;1.80;;;17.60;59.30;;;;;;5091693;28;20208;-47
2023/04/28 03:38:22;;;;;;;2.07;1.80;;;17.70;59.30;;;;;;5073686;28;20225;-47
2023/04/28 03:40:52;;;;;;;2.17;1.97;;;17.70;59.30;;;;;;5091292;28;20221;-47
2023/04/28 03:43:24;;;;;;;2.60;2.00;;;17.70;59.40;;;;;;5089660;28;20220;-47
2023/04/28 03:46:03;;;;;;;2.70;2.40;;;17.70;59.30;;;;;;5076643;28;20206;-47
2023/04/28 03:48:33;;;;;;;3.10;2.30;;;17.60;59.30;;;;;;5090809;28;20204;-47
2023/04/28 03:51:05;;;;;;;2.07;1.87;;;17.70;59.30;;;;;;5071403;28;20558;-47
2023/04/28 03:53:37;;;;;;;3.00;2.40;;;17.60;59.30;;;;;;5091540;28;20199;-47
2023/04/28 03:56:09;;;;;;;2.37;2.17;;;17.60;59.30;;;;;;5091486;28;20205;-47
2023/04/28 03:58:37;;;;;;;2.73;2.13;;;17.60;59.30;;;;;;5092684;28;20220;-47
2023/04/28 04:01:09;;;;;;;2.43;2.10;;;17.70;59.30;;;;;;5104083;28;20201;-47
2023/04/28 04:03:38;;;;;;;2.20;2.00;;;17.60;59.30;;;;;;5100692;28;20214;-47
2023/04/28 04:06:10;;;;;;;3.33;2.20;;;17.60;59.30;;;;;;5108683;28;20192;-48
2023/04/28 04:08:45;;;;;;;2.33;2.13;;;17.60;59.30;;;;;;5083872;28;20242;-46
2023/04/28 04:11:16;;;;;;;2.37;2.17;;;17.60;59.30;;;;;;5098559;28;20205;-48
2023/04/28 04:13:47;;;;;;;2.10;1.90;;;17.60;59.20;;;;;;5091117;28;20238;-48
2023/04/28 04:16:17;;;;;;;2.50;2.20;;;17.70;59.20;;;;;;5115922;28;20192;-46
2023/04/28 04:18:49;;;;;;;2.33;1.90;;;17.60;59.20;;;;;;5105808;28;20223;-46
2023/04/28 04:21:22;;;;;;;2.20;2.00;;;17.60;59.20;;;;;;5113252;28;20212;-47
2023/04/28 04:23:52;;;;;;;2.50;2.30;;;17.60;59.30;;;;;;5099593;28;20200;-47
2023/04/28 04:26:20;;;;;;;3.20;2.27;;;17.60;59.20;;;;;;5109113;28;20188;-46
2023/04/28 04:28:52;;;;;;;2.67;2.30;;;17.60;59.20;;;;;;5081407;28;20197;-46
2023/04/28 04:31:23;;;;;;;2.37;2.17;;;17.60;59.20;;;;;;5087835;28;20677;-46
2023/04/28 04:33:53;;;;;;;2.20;2.00;;;17.60;59.20;;;;;;5101206;28;20677;-46
2023/04/28 04:36:24;;;;;;;2.90;2.20;;;17.60;59.30;;;;;;5110207;28;20249;-46
2023/04/28 04:38:53;;;;;;;2.57;2.37;;;17.60;59.20;;;;;;5099762;28;20406;-46
2023/04/28 04:41:27;;;;;;;3.23;2.10;;;17.60;59.20;;;;;;5101827;28;20224;-47
2023/04/28 04:43:56;;;;;;;2.33;2.13;;;17.60;59.20;;;;;;5090924;28;20185;-47
2023/04/28 04:46:26;;;;;;;2.33;2.13;;;17.60;59.20;;;;;;5097571;28;20204;-46
2023/04/28 04:48:58;;;;;;;2.20;2.00;;;17.60;59.20;;;;;;5110015;28;20204;-46
2023/04/28 04:51:28;;;;;;;2.33;2.13;;;17.60;59.10;;;;;;5100480;28;20201;-46
2023/04/28 04:53:57;;;;;;;2.20;2.00;;;17.60;58.90;;;;;;5100500;28;20200;-46
2023/04/28 04:56:25;;;;;;;2.40;2.20;;;17.60;58.90;;;;;;5100302;28;20250;-46
2023/04/28 04:58:56;;;;;;;1.80;1.70;;;17.60;58.80;;;;;;5095456;28;20220;-46
2023/04/28 05:01:25;;;;;;;2.70;2.30;;;17.60;58.70;;;;;;5091713;28;20201;-46
2023/04/28 05:03:55;;;;;;;2.17;1.97;;;17.50;58.60;;;;;;5090219;28;20637;-47
2023/04/28 05:06:26;;;;;;;2.40;2.20;;;17.50;58.50;;;;;;5102494;28;20249;-47
2023/04/28 05:08:58;;;;;;;2.30;1.93;;;17.50;58.50;;;;;;5093594;28;20201;-46
2023/04/28 05:11:28;;;;;;;2.30;2.10;;;17.50;58.40;;;;;;5084797;28;20258;-46
2023/04/28 05:13:58;;;;;;;1.90;1.80;;;17.50;58.40;;;;;;5089908;28;20205;-46
2023/04/28 05:16:26;;;;;;;2.50;2.07;;;17.50;58.30;;;;;;5072637;28;20495;-46
2023/04/28 05:18:56;;;;;;;2.10;1.97;;;17.50;58.30;;;;;;5072605;28;20221;-46
2023/04/28 05:21:27;;;;;;;2.30;2.10;;;17.50;58.30;;;;;;5068328;28;20208;-46
2023/04/28 05:23:56;;;;;;;2.57;2.37;;;17.50;58.20;;;;;;5089834;28;20574;-46
2023/04/28 05:26:28;;;;;;;2.40;2.20;;;17.50;58.30;;;;;;5089386;28;20250;-46
2023/04/28 05:29:01;;;;;;;2.30;2.10;;;17.50;58.20;;;;;;5088791;28;20255;-46
2023/04/28 05:31:30;;;;;;;2.47;2.27;;;17.50;58.20;;;;;;5089906;28;20532;-46
2023/04/28 05:33:59;;;;;;;3.00;2.40;;;17.50;58.20;;;;;;5087245;28;20217;-47
2023/04/28 05:36:28;;;;;;;4.13;2.53;;;17.50;58.10;;;;;;5071476;28;20669;-46
2023/04/28 05:38:56;;;;;;;2.73;2.40;;;17.50;58.10;;;;;;5088674;28;20268;-46
2023/04/28 05:41:28;;;;;;;3.40;2.50;;;17.50;58.10;;;;;;5088734;28;20217;-46
2023/04/28 05:43:56;;;;;;;4.10;2.40;;;17.50;58.10;;;;;;5092665;28;20203;-46
2023/04/28 05:46:29;;;;;;;2.93;2.73;;;17.50;58.00;;;;;;5107469;28;20356;-46
2023/04/28 05:48:59;;;;;;;2.57;2.37;;;17.50;58.00;;;;;;5074218;28;20231;-46
2023/04/28 05:51:30;;;;;;;2.90;2.70;;;17.50;58.00;;;;;;5098061;28;20195;-46
2023/04/28 05:54:01;;;;;;;2.07;1.80;;;17.50;57.90;;;;;;5095062;28;20200;-47
2023/04/28 05:56:30;;;;;;;2.60;2.40;;;17.50;57.90;;;;;;5094920;28;20201;-46
2023/04/28 05:59:03;;;;;;;2.97;2.53;;;17.50;57.90;;;;;;5086201;28;20757;-46
2023/04/28 06:01:34;;;;;;;2.93;2.30;;;17.50;57.90;;;;;;5094039;28;20181;-47
2023/04/28 06:04:05;;;;;;;2.90;2.60;;;17.50;57.90;;;;;;5080757;28;20224;-46
2023/04/28 06:06:34;;;;;;;2.60;2.40;;;17.50;57.80;;;;;;5087587;28;20181;-46
2023/04/28 06:09:06;;;;;;;3.17;2.67;;;17.50;57.80;;;;;;5084242;28;20189;-46
2023/04/28 06:11:37;;;;;;;2.17;1.97;;;17.50;58.40;;;;;;5075464;28;20195;-46
2023/04/28 06:14:12;;;;;;;3.67;2.60;;;17.50;57.70;;;;;;5088569;28;20200;-47
2023/04/28 06:16:39;;;;;;;3.03;2.67;;;17.60;57.80;;;;;;5093922;28;20596;-46
2023/04/28 06:19:09;;;;;;;3.57;2.70;;;17.60;57.80;;;;;;5087790;28;20534;-46
2023/04/28 06:21:40;;;;;;;3.97;2.33;;;17.50;57.70;;;;;;5070710;28;20654;-46
2023/04/28 06:24:10;;;;;;;2.60;2.40;;;17.50;57.70;;;;;;5085637;28;20185;-46
2023/04/28 06:26:38;;;;;;;2.93;2.50;;;17.60;57.70;;;;;;5085633;28;20606;-46
2023/04/28 06:29:10;;;;;;;4.33;2.67;;;17.60;57.80;;;;;;5092702;28;20570;-46
2023/04/28 06:31:40;;;;;;;3.33;3.03;;;17.50;57.70;;;;;;5054352;28;20205;-47
2023/04/28 06:34:11;;;;;;;3.20;2.57;;;17.50;57.70;;;;;;5086558;28;20606;-47
2023/04/28 06:36:39;;;;;;;4.17;2.80;;;17.50;57.70;;;;;;5088458;28;20509;-46
2023/04/28 06:39:10;;;;;;;3.90;3.10;;;17.50;57.60;;;;;;5085526;28;20220;-46
2023/04/28 06:41:42;;;;;;;4.00;3.00;;;17.50;57.60;;;;;;5076770;28;20232;-47
2023/04/28 06:44:11;;;;;;;3.33;3.03;;;17.50;57.60;;;;;;5089465;28;20212;-46
2023/04/28 06:46:43;;;;;;;5.83;3.20;;;17.50;57.60;;;;;;5093031;28;20201;-46
2023/04/28 06:49:17;;;;;;;3.60;3.20;;;17.60;57.60;;;;;;5073403;28;20196;-46
2023/04/28 06:51:47;;;;;;;5.00;2.93;;;17.60;57.70;;;;;;5099554;28;20213;-47
2023/04/28 06:54:22;;;;;;;4.27;3.20;;;17.60;57.70;;;;;;5088857;28;20201;-46
2023/04/28 06:57:05;;;;;;;3.50;3.00;;;17.60;57.50;;;;;;5088328;28;20292;-46
2023/04/28 06:59:36;;;;;;;5.03;3.23;;;17.60;57.50;;;;;;5071180;28;20212;-46
2023/04/28 07:02:06;;;;;;;3.87;3.20;;;17.60;57.40;;;;;;5095849;28;20200;-46
2023/04/28 07:04:41;;;;;;;4.27;3.13;;;17.60;57.40;;;;;;5090640;28;20205;-46
2023/04/28 07:07:14;;;;;;;5.83;3.00;;;17.60;57.50;;;;;;5072588;28;20185;-46
2023/04/28 07:09:43;;;;;;;3.10;2.80;;;17.60;57.50;;;;;;5090730;28;20209;-46
2023/04/28 07:12:25;;;;;;;5.00;3.00;;;17.60;57.50;;;;;;5098328;28;20266;-46
2023/04/28 07:14:55;;;;;;;3.93;2.67;;;17.60;57.70;;;;;;5076364;28;20189;-46
2023/04/28 07:17:26;;;;;;;3.83;3.43;;;17.60;57.50;;;;;;5091278;28;20189;-46
2023/04/28 07:19:57;;;;;;;4.00;3.33;;;17.60;57.70;;;;;;5089302;28;20631;-46
2023/04/28 07:22:27;;;;;;;6.83;3.23;;;17.60;57.60;;;;;;5072417;28;20193;-47
2023/04/28 07:24:59;;;;;;;5.50;3.40;;;17.60;57.80;;;;;;5080678;28;20200;-46
2023/04/28 07:27:28;;;;;;;4.63;3.43;;;17.60;57.80;;;;;;5095689;28;20253;-46
2023/04/28 07:30:00;;;;;;;4.70;3.33;;;17.60;57.80;;;;;;5093932;28;20201;-46
2023/04/28 07:32:50;;;;;;;3.83;3.10;;;17.60;57.80;;;;;;5091117;28;20228;-46
2023/04/28 07:35:22;;;;;;;4.17;3.20;;;17.70;57.80;;;;;;5090097;28;20314;-46
2023/04/28 07:37:54;;;;;;;6.13;3.77;;;17.70;57.80;;;;;;5091202;28;20200;-46
2023/04/28 07:40:24;;;;;;;3.53;3.13;;;17.60;57.60;;;;;;5091839;28;20264;-46
2023/04/28 07:42:53;;;;;;;4.17;3.00;;;17.70;57.70;;;;;;5090908;28;20607;-46
2023/04/28 07:45:29;;;;;;;4.80;3.20;;;17.70;57.60;;;;;;5087288;28;20399;-46
2023/04/28 07:47:59;;;;;;;4.23;3.33;;;17.70;57.50;;;;;;5089177;28;20532;-46
2023/04/28 07:50:34;;;;;;;3.73;3.10;;;17.70;57.50;;;;;;5096662;28;20625;-46
2023/04/28 07:53:06;;;;;;;5.57;3.70;;;17.70;57.50;;;;;;5072310;28;20204;-46
2023/04/28 07:55:37;;;;;;;4.47;3.17;;;17.70;57.50;;;;;;5090698;28;20214;-46
2023/04/28 07:58:11;;;;;;;6.37;3.30;;;17.70;57.50;;;;;;5065980;28;20213;-46
2023/04/28 08:00:41;;;;;;;3.20;2.90;;;17.70;57.50;;;;;;5076365;28;20205;-46
2023/04/28 08:03:12;;;;;;;4.63;2.90;;;17.70;57.50;;;;;;5085847;28;20424;-46
2023/04/28 08:05:44;;;;;;;5.93;2.77;;;17.70;57.60;;;;;;5084802;28;20634;-46
2023/04/28 08:08:14;;;;;;;5.17;3.13;;;17.80;58.60;;;;;;5090151;28;20197;-46
2023/04/28 08:10:45;;;;;;;7.03;2.80;;;17.90;60.60;;;;;;5085656;27;20217;-48
2023/04/28 08:13:15;;;;;;;9.90;3.00;;;18.00;60.90;;;;;;5072197;28;20198;-47
2023/04/28 08:15:42;;;;;;;13.07;4.00;;;18.10;59.90;;;;;;5072438;28;20247;-47
2023/04/28 08:18:11;;;;;;;6.83;3.50;;;18.20;59.30;;;;;;5089286;28;20201;-47
2023/04/28 08:20:40;;;;;;;6.87;3.50;;;18.30;59.60;;;;;;5070071;28;20224;-47
2023/04/28 08:23:12;;;;;;;4.13;2.73;;;18.30;59.20;;;;;;5094548;28;20208;-47
2023/04/28 08:25:43;;;;;;;7.73;3.50;;;18.40;59.20;;;;;;5089896;28;20189;-47
2023/04/28 08:28:15;;;;;;;3.43;3.10;;;18.50;58.60;;;;;;5090697;28;20224;-47
2023/04/28 08:30:45;;;;;;;7.23;3.30;;;18.60;58.70;;;;;;5090775;28;20643;-47
2023/04/28 08:33:18;;;;;;;6.20;3.30;;;18.60;58.50;;;;;;5090274;28;20631;-47
2023/04/28 08:35:50;;;;;;;5.40;2.90;;;18.70;58.50;;;;;;5094820;28;20204;-46
2023/04/28 08:38:18;;;;;;;6.23;2.80;;;18.80;58.50;;;;;;5073631;28;20703;-48
2023/04/28 08:40:50;;;;;;;5.17;2.90;;;18.90;58.20;;;;;;5095532;28;20314;-47
2023/04/28 08:43:20;;;;;;;9.17;3.10;;;19.00;57.90;;;;;;5075192;28;20197;-46
2023/04/28 08:45:50;;;;;;;3.77;2.97;;;19.00;58.00;;;;;;5089622;28;20274;-47
2023/04/28 08:48:21;;;;;;;7.03;3.07;;;19.10;57.70;;;;;;5092068;28;20193;-47
2023/04/28 08:50:53;;;;;;;6.33;2.77;;;19.10;57.50;;;;;;5069008;28;20193;-47
2023/04/28 08:53:25;;;;;;;4.07;2.97;;;19.20;57.80;;;;;;5076380;28;20466;-47
2023/04/28 08:55:57;;;;;;;3.23;2.60;;;19.20;57.40;;;;;;5073116;28;20192;-47
2023/04/28 08:58:28;;;;;;;4.17;3.10;;;19.30;57.80;;;;;;5070359;28;20219;-47
2023/04/28 09:01:03;;;;;;;4.63;2.90;;;19.30;58.70;;;;;;5090860;28;20205;-47
2023/04/28 09:03:35;;;;;;;5.37;3.30;;;19.30;57.60;;;;;;5072344;28;20196;-47
2023/04/28 09:06:07;;;;;;;4.43;2.93;;;19.40;57.60;;;;;;5098709;28;20201;-47
2023/04/28 09:08:39;;;;;;;5.40;2.93;;;19.40;57.80;;;;;;5089596;28;20189;-46
2023/04/28 09:11:10;;;;;;;8.27;3.00;;;19.40;57.60;;;;;;5101052;28;20211;-46
2023/04/28 09:13:41;;;;;;;8.13;3.40;;;19.40;57.30;;;;;;5083594;28;20205;-47
2023/04/28 09:16:09;;;;;;;5.07;2.80;;;19.50;57.30;;;;;;5091800;28;20193;-47
2023/04/28 09:18:54;;;;;;;6.07;2.90;;;19.50;57.40;;;;;;5098607;28;20196;-47
2023/04/28 09:21:23;;;;;;;4.13;2.57;;;19.60;56.80;;;;;;5070914;28;21107;-47
2023/04/28 09:23:56;;;;;;;6.07;2.93;;;19.60;57.20;;;;;;5091088;28;20196;-47
2023/04/28 09:26:26;;;;;;;2.93;2.50;;;19.60;56.80;;;;;;5077112;28;20197;-47
2023/04/28 09:29:12;;;;;;;4.63;2.10;;;19.70;57.40;;;;;;5089823;28;20216;-47
2023/04/28 09:31:44;;;;;;;4.13;2.47;;;19.70;56.90;;;;;;5094340;28;20193;-47
2023/04/28 09:34:16;;;;;;;4.17;2.37;;;19.80;56.70;;;;;;5090294;28;20220;-47
2023/04/28 09:36:47;;;;;;;2.40;2.20;;;19.80;57.20;;;;;;5097615;28;20228;-48
2023/04/28 09:39:33;;;;;;;3.10;2.53;;;19.90;57.20;;;;;;5086616;28;20215;-47
2023/04/28 09:42:04;;;;;;;7.53;2.50;;;19.90;57.50;;;;;;5084325;28;20250;-47
2023/04/28 09:44:34;;;;;;;8.33;2.77;;;20.00;57.40;;;;;;5089259;28;20196;-47
2023/04/28 09:47:24;;;;;;;6.00;2.27;;;20.10;57.70;;;;;;5083466;28;20209;-46
2023/04/28 09:50:00;;;;;;;5.40;3.07;;;20.20;58.10;;;;;;5079139;28;20193;-47
2023/04/28 09:52:29;;;;;;;2.93;2.30;;;20.20;57.40;;;;;;5083471;28;20197;-47
2023/04/28 09:55:02;;;;;;;5.27;2.53;;;20.20;57.50;;;;;;5092678;28;20504;-46
2023/04/28 09:57:33;;;;;;;6.97;2.70;;;20.20;57.30;;;;;;5095523;28;20208;-47
2023/04/28 10:00:06;;;;;;;4.20;2.60;;;20.30;57.70;;;;;;5060746;28;20204;-47
2023/04/28 10:02:37;;;;;;;5.73;2.43;;;20.30;57.00;;;;;;5085885;28;20210;-47
2023/04/28 10:05:28;;;;;;;7.87;3.70;;;20.30;58.20;;;;;;5041733;28;20210;-47
2023/04/28 10:08:04;;;;;;;9.83;3.37;;;20.40;59.30;;;;;;5041775;28;20237;-46
2023/04/28 10:10:33;;;;;;;7.47;3.17;;;20.40;59.50;;;;;;5040590;28;20221;-47
2023/04/28 10:13:02;;;;;;;9.00;3.47;;;20.40;58.40;;;;;;5040434;28;20206;-46
2023/04/28 10:15:31;;;;;;;7.80;3.27;;;20.40;59.30;;;;;;5035605;28;20255;-47
2023/04/28 10:18:02;;;;;;;6.60;3.87;;;20.40;58.40;;;;;;5042878;28;20883;-47
2023/04/28 10:21:15;;;;;;;14.90;4.40;;;20.40;58.80;;;;;;5028475;28;20912;-47
2023/04/28 10:24:15;;;;;;;9.30;3.80;;;20.40;59.20;;;;;;5072125;28;20209;-47
2023/04/28 10:27:08;;;;;;;10.13;4.03;;;20.40;59.40;;;;;;5086607;28;20253;-46
2023/04/28 10:29:38;;;;;;;8.63;4.00;;;20.30;59.30;;;;;;5061082;28;20189;-46
2023/04/28 10:32:25;;;;;;;9.60;3.23;;;20.30;59.80;;;;;;5086044;28;20279;-47
2023/04/28 10:35:34;;;;;;;7.83;3.63;;;20.30;60.00;;;;;;5077459;28;20197;-46
2023/04/28 10:38:16;;;;;;;7.73;4.00;;;20.30;59.80;;;;;;5041583;28;20282;-46
2023/04/28 10:40:47;;;;;;;8.53;3.47;;;20.30;59.80;;;;;;5059007;28;20240;-46
2023/04/28 10:43:30;;;;;;;6.63;3.70;;;20.30;60.20;;;;;;5044619;28;20887;-46
2023/04/28 10:46:06;;;;;;;9.60;4.10;;;20.30;61.00;;;;;;5060753;28;20250;-47
2023/04/28 10:48:54;;;;;;;12.63;3.90;;;20.30;62.30;;;;;;5033761;28;20241;-47
2023/04/28 10:51:45;;;;;;;8.57;4.33;;;20.20;61.30;;;;;;5033111;28;20198;-47
2023/04/28 10:54:22;;;;;;;11.17;4.00;;;20.30;63.10;;;;;;5056655;28;20198;-47
2023/04/28 10:57:15;;;;;;;10.47;4.43;;;20.20;63.00;;;;;;5051905;28;20213;-47
2023/04/28 10:59:46;;;;;;;8.17;3.70;;;20.30;61.80;;;;;;5037368;28;20222;-47
2023/04/28 11:02:38;;;;;;;8.97;4.07;;;20.20;60.10;;;;;;5064438;28;20737;-47
2023/04/28 11:05:17;;;;;;;7.77;3.63;;;20.20;62.20;;;;;;5048466;28;20207;-47
2023/04/28 11:08:24;;;;;;;9.07;3.83;;;20.10;59.70;;;;;;5042656;28;20527;-47
2023/04/28 11:11:24;;;;;;;9.63;4.20;;;20.10;59.90;;;;;;5054502;28;20544;-47
2023/04/28 11:14:15;;;;;;;9.47;3.93;;;20.10;60.10;;;;;;5051873;28;20229;-47
2023/04/28 11:16:50;;;;;;;7.47;3.57;;;20.10;60.00;;;;;;5034445;28;20213;-47
2023/04/28 11:19:32;;;;;;;7.93;3.50;;;20.10;60.30;;;;;;5061507;28;20726;-46
2023/04/28 11:22:10;;;;;;;8.47;3.50;;;20.00;60.50;;;;;;5052574;28;20234;-47
2023/04/28 11:24:55;;;;;;;8.80;3.80;;;20.00;60.40;;;;;;5033054;28;20633;-47
2023/04/28 11:27:31;;;;;;;8.23;3.90;;;20.00;60.40;;;;;;5032543;28;20844;-47
2023/04/28 11:30:21;;;;;;;7.13;4.17;;;20.00;60.50;;;;;;5039518;28;20191;-47
2023/04/28 11:32:53;;;;;;;6.70;3.40;;;19.90;60.50;;;;;;5040431;28;20193;-46
2023/04/28 11:35:23;;;;;;;6.27;3.80;;;19.90;60.90;;;;;;5052640;28;20276;-46
2023/04/28 11:38:03;;;;;;;8.00;3.80;;;19.90;60.90;;;;;;5062866;28;20230;-47
2023/04/28 11:40:31;;;;;;;8.43;3.70;;;19.90;61.30;;;;;;5023952;28;20482;-46
2023/04/28 11:43:02;;;;;;;10.60;4.57;;;19.90;61.00;;;;;;5076709;28;20193;-46
2023/04/28 11:45:32;;;;;;;9.43;4.60;;;19.90;60.80;;;;;;5068417;28;20213;-47
2023/04/28 11:48:21;;;;;;;9.33;4.70;;;19.90;60.90;;;;;;5064867;28;20263;-47
2023/04/28 11:50:52;;;;;;;8.47;4.17;;;19.80;61.00;;;;;;5049722;28;20209;-46
2023/04/28 11:53:44;;;;;;;7.03;4.20;;;19.80;61.00;;;;;;5067899;28;20182;-46
2023/04/28 11:56:16;;;;;;;8.90;4.80;;;19.70;60.90;;;;;;5064815;28;20190;-47
2023/04/28 11:58:58;;;;;;;7.63;4.50;;;19.80;61.10;;;;;;5066198;28;20226;-46
2023/04/28 12:01:29;;;;;;;8.67;4.17;;;19.70;61.30;;;;;;5068892;28;20596;-46
2023/04/28 12:03:59;;;;;;;5.90;3.83;;;19.70;61.30;;;;;;5053630;28;20201;-47
2023/04/28 12:06:33;;;;;;;8.47;4.57;;;19.70;61.50;;;;;;5073347;28;20202;-45
2023/04/28 12:09:15;;;;;;;7.63;4.23;;;19.70;61.40;;;;;;5068579;28;20190;-49
2023/04/28 12:12:01;;;;;;;6.43;4.20;;;19.70;61.80;;;;;;5048270;28;20615;-49
2023/04/28 12:14:52;;;;;;;9.00;4.27;;;19.70;61.60;;;;;;5070402;28;20217;-49
2023/04/28 12:17:37;;;;;;;7.27;4.17;;;19.70;61.80;;;;;;5036604;28;20205;-48
2023/04/28 12:20:38;;;;;;;9.93;4.03;;;19.60;61.90;;;;;;5050124;28;20573;-48
2023/04/28 12:23:10;;;;;;;8.40;4.13;;;19.60;62.10;;;;;;5062530;28;20215;-48
2023/04/28 12:25:46;;;;;;;7.57;3.70;;;19.60;62.30;;;;;;5065429;28;20194;-48
2023/04/28 12:28:17;;;;;;;7.43;3.87;;;19.60;62.60;;;;;;5038292;28;20225;-48
2023/04/28 12:30:44;;;;;;;5.13;3.63;;;19.60;62.60;;;;;;5048244;28;20206;-48
2023/04/28 12:33:28;;;;;;;5.43;3.00;;;19.60;62.80;;;;;;5047580;28;20197;-48
2023/04/28 12:35:59;;;;;;;4.67;3.20;;;19.60;62.90;;;;;;5053188;28;20549;-47
2023/04/28 12:38:27;;;;;;;5.37;3.30;;;19.60;63.50;;;;;;5047636;28;20267;-48
2023/04/28 12:40:59;;;;;;;5.53;3.20;;;19.60;63.50;;;;;;5069696;28;20257;-47
2023/04/28 12:43:28;;;;;;;4.13;3.07;;;19.60;63.50;;;;;;5069650;28;20653;-47
2023/04/28 12:45:59;;;;;;;4.80;3.03;;;19.60;63.70;;;;;;5065581;28;20209;-47
2023/04/28 12:48:34;;;;;;;4.43;2.73;;;19.60;63.50;;;;;;5067348;28;20193;-47
2023/04/28 12:51:07;;;;;;;5.47;3.40;;;19.60;63.70;;;;;;5066190;28;20209;-47
2023/04/28 12:53:57;;;;;;;5.47;2.90;;;19.60;63.70;;;;;;5067872;28;20205;-48
2023/04/28 12:56:29;;;;;;;4.93;3.23;;;19.50;63.90;;;;;;5051062;28;20194;-48
2023/04/28 12:59:03;;;;;;;4.63;3.10;;;19.60;64.10;;;;;;5060726;28;20671;-48
2023/04/28 13:01:35;;;;;;;4.17;3.00;;;19.50;63.90;;;;;;5061651;28;20214;-48
2023/04/28 13:04:08;;;;;;;5.97;3.30;;;19.50;63.90;;;;;;5069420;28;20205;-48
2023/04/28 13:06:43;;;;;;;5.03;3.27;;;19.50;64.00;;;;;;5069972;28;20205;-48
2023/04/28 13:09:16;;;;;;;4.43;2.83;;;19.50;64.10;;;;;;5064892;28;20204;-48
2023/04/28 13:11:49;;;;;;;3.60;2.70;;;19.50;64.10;;;;;;5073936;28;20519;-47
2023/04/28 13:14:17;;;;;;;4.30;2.80;;;19.50;64.20;;;;;;5068279;28;20628;-49
2023/04/28 13:16:50;;;;;;;6.43;2.87;;;19.50;64.10;;;;;;5064308;28;20624;-46